Time;durP1;ratioP1;P1;durP2;ratioP2;P2;SDS_P1;SDS_P2;PMS_P1;PMS_P2;Temp;Humidity;BMP_temperature;BMP_pressure;BME280_temperature;BME280_humidity;BME280_pressure;Samples;Min_cycle;Max_cycle;Signal;HPM_P1;HPM_P2
2022/07/20 00:03:08;;;;;;;9.80;6.68;;;;;;;14.91;68.48;98233.88;10376514;28;20429;-56
2022/07/20 00:08:08;;;;;;;8.25;5.82;;;;;;;14.81;68.48;98236.56;10375974;28;20071;-56
2022/07/20 00:13:07;;;;;;;10.82;6.28;;;;;;;14.72;68.52;98228.81;10376555;28;20068;-56
2022/07/20 00:18:06;;;;;;;12.55;6.32;;;;;;;14.61;68.64;98220.19;10376317;28;20044;-56
2022/07/20 00:23:05;;;;;;;8.25;5.28;;;;;;;14.62;68.70;98227.16;10375659;28;20076;-56
2022/07/20 00:28:04;;;;;;;7.85;5.45;;;;;;;14.50;69.77;98232.47;10375425;28;20087;-57
2022/07/20 00:33:03;;;;;;;8.40;5.05;;;;;;;14.43;69.76;98222.97;10378664;28;20039;-56
2022/07/20 00:38:02;;;;;;;9.45;5.82;;;;;;;14.37;69.65;98221.28;10378985;28;20614;-56
2022/07/20 00:43:01;;;;;;;10.52;5.60;;;;;;;14.30;69.98;98228.31;10378959;28;20393;-56
2022/07/20 00:48:01;;;;;;;11.93;6.13;;;;;;;14.23;69.68;98216.19;10378027;28;20040;-56
2022/07/20 00:53:00;;;;;;;9.52;6.40;;;;;;;14.17;70.38;98222.34;10378109;28;20468;-56
2022/07/20 00:57:59;;;;;;;11.95;6.25;;;;;;;14.18;70.49;98220.59;10377746;28;20033;-56
2022/07/20 01:02:58;;;;;;;9.50;5.90;;;;;;;14.09;70.85;98213.69;10376589;28;20110;-56
2022/07/20 01:07:57;;;;;;;12.82;6.32;;;;;;;13.98;71.95;98218.09;10377397;28;20039;-56
2022/07/20 01:12:57;;;;;;;11.10;7.47;;;;;;;13.89;71.93;98221.66;10377803;28;20025;-56
2022/07/20 01:17:56;;;;;;;9.75;6.63;;;;;;;13.87;72.07;98213.00;10376846;28;20063;-56
2022/07/20 01:22:55;;;;;;;15.10;10.50;;;;;;;13.72;72.21;98215.69;10377173;28;20067;-56
2022/07/20 01:27:56;;;;;;;12.38;8.43;;;;;;;13.48;73.25;98220.13;10376712;28;20085;-56
2022/07/20 01:32:55;;;;;;;11.43;8.02;;;;;;;13.23;73.86;98197.66;10373005;28;20461;-55
2022/07/20 01:37:54;;;;;;;12.23;7.82;;;;;;;13.24;74.14;98220.25;10373301;28;20579;-56
2022/07/20 01:42:53;;;;;;;21.52;15.25;;;;;;;13.18;74.49;98215.91;10372693;28;20064;-55
2022/07/20 01:47:52;;;;;;;17.98;13.68;;;;;;;13.16;74.58;98225.47;10372370;28;20045;-56
2022/07/20 01:52:51;;;;;;;16.25;11.50;;;;;;;13.15;74.51;98227.22;10373067;28;20041;-56
2022/07/20 01:57:50;;;;;;;15.13;11.32;;;;;;;13.14;74.55;98219.41;10372173;28;20029;-55
2022/07/20 02:02:49;;;;;;;20.90;13.82;;;;;;;13.18;74.40;98220.28;10372273;28;20044;-57
2022/07/20 02:07:48;;;;;;;20.08;14.60;;;;;;;13.19;75.09;98222.88;10372337;28;20064;-57
2022/07/20 02:12:47;;;;;;;28.10;18.70;;;;;;;13.14;75.35;98229.81;10372022;28;20341;-55
2022/07/20 02:17:46;;;;;;;25.27;17.98;;;;;;;13.09;75.71;98231.59;10371961;28;20029;-55
2022/07/20 02:22:45;;;;;;;27.55;21.60;;;;;;;13.10;75.73;98236.81;10372149;28;20027;-55
2022/07/20 02:27:44;;;;;;;22.80;18.65;;;;;;;13.10;75.68;98228.13;10371800;28;20376;-55
2022/07/20 02:32:43;;;;;;;25.75;18.05;;;;;;;13.08;75.87;98228.13;10371491;28;20403;-55
2022/07/20 02:37:42;;;;;;;23.25;17.58;;;;;;;13.09;75.59;98231.59;10371283;28;20033;-55
2022/07/20 02:42:41;;;;;;;16.63;12.20;;;;;;;13.07;75.75;98231.63;10371778;28;20286;-57
2022/07/20 02:47:44;;;;;;;16.80;6.78;;;;;;;13.05;75.91;98235.09;10371362;28;20265;-56
2022/07/20 02:52:44;;;;;;;8.77;5.70;;;;;;;13.01;75.53;98231.63;10370759;28;20071;-56
2022/07/20 02:57:42;;;;;;;;;;;;;;;13.00;75.83;98232.50;10371426;28;20118;-56
2022/07/20 03:02:42;;;;;;;10.10;6.13;;;;;;;12.98;75.86;98242.06;10370907;28;19956;-56
2022/07/20 03:07:41;;;;;;;;;;;;;;;12.89;76.52;98239.47;10371000;28;20556;-56
2022/07/20 03:12:40;;;;;;;14.03;7.93;;;;;;;12.88;76.88;98248.16;10370262;28;19974;-56
2022/07/20 03:17:47;;;;;;;16.23;8.63;;;;;;;12.90;76.75;98252.47;10370304;28;20310;-56
2022/07/20 03:22:47;;;;;;;16.35;7.85;;;;;;;12.92;76.52;98261.16;10371377;28;20080;-56
2022/07/20 03:27:46;;;;;;;;;;;;;;;12.85;76.62;98267.25;10378122;28;20509;-56
2022/07/20 03:32:45;;;;;;;14.55;7.35;;;;;;;12.75;76.91;98268.16;10377386;28;20443;-56
2022/07/20 03:37:44;;;;;;;15.15;7.25;;;;;;;12.78;76.92;98269.88;10377641;28;20053;-56
2022/07/20 03:42:43;;;;;;;;;;;;;;;12.80;76.79;98278.56;10377576;28;20072;-56
2022/07/20 03:47:42;;;;;;;10.52;6.60;;;;;;;12.71;76.54;98261.22;10376878;28;19942;-56
2022/07/20 03:52:40;;;;;;;11.85;6.40;;;;;;;12.80;76.83;98279.44;10377148;28;20072;-56
2022/07/20 03:57:40;;;;;;;13.23;6.82;;;;;;;12.79;76.54;98279.41;10376676;28;20041;-56
2022/07/20 04:02:39;;;;;;;12.73;6.68;;;;;;;12.79;76.38;98285.50;10376476;28;20135;-56
2022/07/20 04:07:38;;;;;;;10.15;6.50;;;;;;;12.83;76.50;98276.81;10376656;28;20041;-56
2022/07/20 04:12:37;;;;;;;11.95;6.40;;;;;;;12.79;76.71;98282.91;10376342;28;20100;-56
2022/07/20 04:17:36;;;;;;;11.93;6.82;;;;;;;12.88;76.75;98287.22;10376258;28;20389;-56
2022/07/20 04:22:35;;;;;;;11.43;6.90;;;;;;;13.01;76.48;98283.72;10375773;28;20037;-56
2022/07/20 04:27:33;;;;;;;11.32;6.65;;;;;;;13.19;76.06;98284.53;10375665;28;20054;-55
2022/07/20 04:32:32;;;;;;;10.65;6.90;;;;;;;13.32;75.98;98291.47;10375431;28;20025;-56
2022/07/20 04:37:31;;;;;;;13.77;7.10;;;;;;;13.45;76.02;98282.72;10373971;28;20048;-56
2022/07/20 04:42:31;;;;;;;9.93;7.07;;;;;;;13.58;75.94;98283.56;10375148;28;20148;-56
2022/07/20 04:47:30;;;;;;;13.25;7.60;;;;;;;13.71;75.78;98287.84;10370794;28;20071;-56
2022/07/20 04:52:29;;;;;;;14.27;7.15;;;;;;;13.86;75.69;98302.53;10374737;28;20024;-56
2022/07/20 04:57:28;;;;;;;15.50;7.18;;;;;;;14.05;75.35;98295.47;10369902;28;20107;-56
2022/07/20 05:02:27;;;;;;;15.82;7.68;;;;;;;14.21;75.06;98293.63;10374186;28;20504;-56
2022/07/20 05:07:26;;;;;;;12.80;7.40;;;;;;;14.39;74.79;98301.34;10372513;28;20120;-56
2022/07/20 05:12:25;;;;;;;;;;;;;;;14.57;74.40;98299.47;10374043;28;20068;-56
2022/07/20 05:17:23;;;;;;;20.98;8.77;;;;;;;14.86;74.07;98293.16;10371851;28;19999;-56
2022/07/20 05:22:22;;;;;;;14.65;8.32;;;;;;;15.12;73.85;98295.50;10373492;28;20096;-56
2022/07/20 05:27:21;;;;;;;;;;;;;;;15.42;72.89;98297.75;10370561;28;20531;-56
2022/07/20 05:32:20;;;;;;;11.45;7.65;;;;;;;15.64;70.90;98292.25;10375740;28;20403;-56
2022/07/20 05:37:19;;;;;;;11.23;8.20;;;;;;;15.87;69.13;98312.94;10376068;28;20037;-56
2022/07/20 05:42:18;;;;;;;13.75;8.77;;;;;;;16.05;68.68;98304.84;10375798;28;20080;-56
2022/07/20 05:47:17;;;;;;;;;;;;;;;16.32;68.55;98307.06;10348851;28;20038;-56
2022/07/20 05:52:17;;;;;;;12.87;8.27;;;;;;;16.57;66.74;98303.16;10365032;28;19916;-56
2022/07/20 05:57:16;;;;;;;13.00;7.63;;;;;;;16.82;66.34;98298.44;10375710;28;20064;-56
2022/07/20 06:02:15;;;;;;;;;;;;;;;17.10;64.17;98304.03;10375744;28;20033;-56
2022/07/20 06:07:13;;;;;;;10.37;6.93;;;;;;;17.34;63.38;98291.34;10375482;28;19956;-56
2022/07/20 06:12:13;;;;;;;;;;;;;;;17.61;62.15;98289.91;10375693;28;20100;-56
2022/07/20 06:17:12;;;;;;;8.50;6.00;;;;;;;17.95;60.50;98295.34;10375175;28;19951;-56
2022/07/20 06:22:11;;;;;;;13.13;6.38;;;;;;;18.24;58.19;98291.19;10374607;28;20917;-56
2022/07/20 06:27:10;;;;;;;10.50;6.45;;;;;;;18.52;57.38;98296.66;10375435;28;20082;-56
2022/07/20 06:32:09;;;;;;;8.05;5.45;;;;;;;18.65;55.38;98277.97;10371425;28;20071;-56
2022/07/20 06:37:08;;;;;;;7.25;5.18;;;;;;;18.89;54.43;98274.72;10366135;28;20023;-55
2022/07/20 06:42:07;;;;;;;9.88;5.38;;;;;;;19.08;52.88;98268.97;10342520;28;20052;-55
2022/07/20 06:47:06;;;;;;;10.02;5.10;;;;;;;19.38;51.91;98268.13;10362106;28;20065;-55
2022/07/20 06:52:05;;;;;;;7.88;4.95;;;;;;;19.59;50.63;98271.94;10363914;28;20061;-55
2022/07/20 06:57:04;;;;;;;8.38;4.63;;;;;;;19.85;50.92;98267.69;10358282;28;20099;-56
2022/07/20 07:02:04;;;;;;;8.65;4.70;;;;;;;20.16;50.90;98257.03;10359011;28;20028;-56
2022/07/20 07:07:03;;;;;;;9.05;5.63;;;;;;;20.51;51.49;98262.97;10380402;28;20056;-55
2022/07/20 07:12:02;;;;;;;9.73;4.90;;;;;;;20.72;50.14;98266.69;10349879;28;20068;-55
2022/07/20 07:17:01;;;;;;;6.90;4.90;;;;;;;21.01;49.40;98252.50;10374804;28;20084;-56
2022/07/20 07:22:01;;;;;;;6.30;3.90;;;;;;;21.26;48.72;98249.00;10379730;28;20056;-56
2022/07/20 07:27:00;;;;;;;8.50;3.92;;;;;;;21.60;47.21;98251.25;10361307;28;20064;-56
2022/07/20 07:31:59;;;;;;;7.43;4.50;;;;;;;21.86;46.56;98247.63;10357303;28;20465;-55
2022/07/20 07:36:57;;;;;;;5.90;3.75;;;;;;;22.11;46.23;98246.69;10358785;28;20552;-56
2022/07/20 07:41:56;;;;;;;6.35;4.15;;;;;;;22.37;44.42;98243.00;10357290;28;20560;-56
2022/07/20 07:46:55;;;;;;;8.63;3.90;;;;;;;22.62;44.18;98250.75;10358620;28;20029;-56
2022/07/20 07:51:54;;;;;;;7.38;4.03;;;;;;;22.82;42.45;98241.16;10358216;28;20024;-56
2022/07/20 07:56:53;;;;;;;4.30;3.42;;;;;;;23.07;41.34;98235.63;10359423;28;20104;-56
2022/07/20 08:01:52;;;;;;;6.03;3.55;;;;;;;23.36;41.33;98237.00;10358974;28;20527;-56
2022/07/20 08:06:51;;;;;;;5.43;3.20;;;;;;;23.60;38.64;98227.09;10351186;28;20489;-56
2022/07/20 08:11:50;;;;;;;4.57;3.40;;;;;;;23.79;39.31;98222.66;10360294;28;20032;-56
2022/07/20 08:16:49;;;;;;;5.57;3.47;;;;;;;23.97;38.15;98223.56;10372868;28;20436;-56
2022/07/20 08:21:48;;;;;;;5.80;3.42;;;;;;;24.28;37.94;98214.16;10358682;28;20064;-56
2022/07/20 08:26:47;;;;;;;4.05;3.03;;;;;;;24.61;36.90;98210.75;10356493;28;20041;-56
2022/07/20 08:31:46;;;;;;;4.82;2.97;;;;;;;24.92;36.84;98222.47;10380742;28;20045;-56
2022/07/20 08:36:45;;;;;;;5.18;2.83;;;;;;;25.10;35.67;98213.56;10365450;28;20461;-56
2022/07/20 08:41:46;;;;;;;5.55;2.67;;;;;;;25.34;34.29;98206.09;10360793;28;20077;-56
2022/07/20 08:46:45;;;;;;;4.07;2.28;;;;;;;25.54;32.28;98202.38;10364282;28;20079;-56
2022/07/20 08:51:44;;;;;;;6.13;2.72;;;;;;;25.78;33.18;98204.63;10364406;28;20073;-56
2022/07/20 08:56:43;;;;;;;2.80;2.47;;;;;;;26.00;31.28;98194.50;10360111;28;20463;-56
2022/07/20 09:02:01;;;;;;;4.80;2.33;;;;;;;25.97;31.42;98186.69;10357392;28;20021;-56
2022/07/20 09:07:00;;;;;;;3.58;2.60;;;;;;;26.26;31.65;98197.50;10359620;28;20414;-56
2022/07/20 09:11:59;;;;;;;6.45;2.58;;;;;;;26.50;31.81;98188.06;10368114;28;20392;-56
2022/07/20 09:16:57;;;;;;;6.68;2.72;;;;;;;26.67;32.21;98178.22;10379278;28;20108;-56
2022/07/20 09:21:56;;;;;;;5.85;2.90;;;;;;;26.75;30.71;98168.00;10378415;28;20027;-56
2022/07/20 09:27:04;;;;;;;4.55;2.40;;;;;;;27.03;31.29;98166.34;10378742;28;20104;-56
2022/07/20 09:32:03;;;;;;;3.30;2.38;;;;;;;27.03;29.66;98169.84;10371648;28;20057;-56
2022/07/20 09:37:16;;;;;;;5.15;2.95;;;;;;;26.96;30.14;98164.03;10354104;28;20083;-56
2022/07/20 09:42:16;;;;;;;3.85;2.25;;;;;;;27.01;29.72;98160.25;10354412;28;20065;-56
2022/07/20 09:47:15;;;;;;;4.40;2.38;;;;;;;27.16;29.80;98159.28;10353767;28;20056;-55
2022/07/20 09:52:14;;;;;;;6.70;2.63;;;;;;;27.12;29.40;98160.41;10347119;28;20496;-56
2022/07/20 09:57:15;;;;;;;5.43;3.00;;;;;;;27.25;29.34;98148.06;10351345;28;20064;-56
2022/07/20 10:02:15;;;;;;;4.15;2.45;;;;;;;27.35;29.18;98145.66;10352694;28;20080;-56
2022/07/20 10:07:14;;;;;;;4.18;2.30;;;;;;;27.25;29.14;98137.41;10364278;28;20071;-56
2022/07/20 10:12:13;;;;;;;3.25;2.17;;;;;;;27.37;29.23;98130.44;10365502;28;20060;-56
2022/07/20 10:17:12;;;;;;;2.97;2.22;;;;;;;27.57;29.17;98129.22;10360187;28;20064;-56
2022/07/20 10:22:12;;;;;;;4.63;2.40;;;;;;;27.85;29.47;98122.09;10333528;28;20057;-56
2022/07/20 10:27:12;;;;;;;4.90;2.50;;;;;;;28.22;28.27;98113.38;10333485;28;20473;-56
2022/07/20 10:32:32;;;;;;;4.18;2.60;;;;;;;28.43;28.17;98103.03;10335479;28;20836;-56
2022/07/20 10:37:42;;;;;;;4.07;2.20;;;;;;;28.72;27.85;98089.53;10374345;28;20087;-57
2022/07/20 10:42:48;;;;;;;6.05;2.40;;;;;;;28.40;27.76;98089.03;10363148;28;20075;-56
2022/07/20 10:47:53;;;;;;;5.35;2.50;;;;;;;28.50;27.92;98082.13;10363207;28;20065;-56
2022/07/20 10:52:56;;;;;;;5.72;2.58;;;;;;;28.63;27.84;98074.94;10349625;28;20072;-56
2022/07/20 10:57:55;;;;;;;3.05;2.53;;;;;;;29.02;28.53;98070.47;10340983;28;20064;-56
2022/07/20 11:02:54;;;;;;;6.70;2.38;;;;;;;29.34;28.39;98067.31;10344077;28;20033;-56
2022/07/20 11:07:53;;;;;;;6.25;2.70;;;;;;;29.45;27.40;98062.03;10356850;28;20458;-56
2022/07/20 11:12:58;;;;;;;5.10;2.50;;;;;;;29.61;27.80;98050.22;10376606;28;20065;-56
2022/07/20 11:17:57;;;;;;;8.10;2.45;;;;;;;29.58;27.10;98055.78;10339846;28;20132;-57
2022/07/20 11:22:57;;;;;;;6.55;2.60;;;;;;;29.53;26.74;98048.09;10339049;28;20756;-56
2022/07/20 11:28:03;;;;;;;3.97;2.35;;;;;;;29.65;27.22;98038.34;10339092;28;20640;-56
2022/07/20 11:33:02;;;;;;;5.43;2.30;;;;;;;29.39;26.15;98026.88;10355426;28;20067;-56
2022/07/20 11:38:01;;;;;;;2.42;2.13;;;;;;;29.34;26.51;98032.56;10379638;28;20516;-56
2022/07/20 11:43:09;;;;;;;4.78;2.42;;;;;;;29.36;26.41;98008.41;10378650;28;20484;-56
2022/07/20 11:48:15;;;;;;;;;;;;;;;29.57;26.03;98025.53;10342617;28;20087;-56
2022/07/20 11:53:36;;;;;;;3.45;2.30;;;;;;;29.64;25.95;98018.75;10337903;28;19948;-56
2022/07/20 11:58:37;;;;;;;2.95;2.25;;;;;;;29.65;25.84;98007.09;10336763;28;20068;-56
2022/07/20 12:03:39;;;;;;;4.28;2.22;;;;;;;29.87;25.47;98011.69;10337773;28;20072;-56
2022/07/20 12:08:39;;;;;;;4.70;2.17;;;;;;;29.92;24.83;98006.84;10367852;28;20075;-56
2022/07/20 12:13:49;;;;;;;4.32;2.95;;;;;;;29.80;24.90;97999.72;10350774;28;20468;-56
2022/07/20 12:18:51;;;;;;;2.92;2.40;;;;;;;30.09;25.86;97996.66;10337481;28;20441;-56
2022/07/20 12:23:52;;;;;;;4.20;3.30;;;;;;;30.12;25.40;97996.44;10370872;28;20596;-56
2022/07/20 12:28:55;;;;;;;5.75;3.80;;;;;;;30.18;25.30;97990.59;10375297;28;20360;-56
2022/07/20 12:34:05;;;;;;;4.72;2.38;;;;;;;30.13;25.08;97992.78;10375121;28;20107;-56
2022/07/20 12:39:08;;;;;;;7.38;3.03;;;;;;;29.95;24.93;97996.88;10375090;28;20083;-55
2022/07/20 12:44:31;;;;;;;6.60;2.60;;;;;;;29.85;25.14;97999.41;10375236;28;20077;-57
2022/07/20 12:49:31;;;;;;;3.58;2.45;;;;;;;29.89;24.29;97974.97;10374874;28;20367;-57
2022/07/20 12:54:30;;;;;;;5.60;2.67;;;;;;;29.86;24.87;97969.88;10374899;28;20079;-57
2022/07/20 12:59:29;;;;;;;4.32;2.33;;;;;;;30.16;25.29;97960.44;10374836;28;20060;-55
2022/07/20 13:04:29;;;;;;;5.57;2.53;;;;;;;30.04;23.96;97966.75;10373834;28;20048;-55
2022/07/20 13:09:28;;;;;;;4.63;2.45;;;;;;;30.22;24.45;97962.63;10374260;28;20551;-56
2022/07/20 13:14:27;;;;;;;3.72;2.47;;;;;;;30.28;23.97;97954.13;10374100;28;20503;-55
2022/07/20 13:19:26;;;;;;;4.45;2.42;;;;;;;30.18;24.39;97950.44;10373643;28;20025;-55
2022/07/20 13:24:25;;;;;;;5.03;2.30;;;;;;;30.18;23.99;97942.41;10371901;28;20052;-55
2022/07/20 13:29:24;;;;;;;4.80;2.58;;;;;;;30.13;24.53;97932.06;10373995;28;20029;-55
2022/07/20 13:34:23;;;;;;;6.13;2.58;;;;;;;30.26;23.73;97934.66;10376560;28;20068;-55
2022/07/20 13:39:22;;;;;;;3.53;2.20;;;;;;;29.96;24.31;97934.38;10376212;28;20048;-55
2022/07/20 13:44:21;;;;;;;3.80;2.35;;;;;;;29.98;24.65;97919.91;10376324;28;20120;-55
2022/07/20 13:49:20;;;;;;;3.80;2.60;;;;;;;30.20;23.96;97924.41;10375877;28;20031;-55
2022/07/20 13:54:19;;;;;;;5.10;2.50;;;;;;;30.40;24.46;97903.25;10376313;28;20116;-55
2022/07/20 13:59:18;;;;;;;3.70;2.90;;;;;;;30.30;23.65;97909.34;10375477;28;20519;-55
2022/07/20 14:04:17;;;;;;;2.40;1.95;;;;;;;30.40;22.30;97898.78;10375357;28;20065;-55
2022/07/20 14:09:16;;;;;;;2.80;2.10;;;;;;;30.55;23.16;97902.06;10375161;28;20045;-55
2022/07/20 14:14:15;;;;;;;2.78;2.40;;;;;;;30.65;23.38;97886.09;10375647;28;20035;-55
2022/07/20 14:19:14;;;;;;;4.47;2.10;;;;;;;30.44;23.04;97881.47;10375424;28;20520;-55
2022/07/20 14:24:13;;;;;;;3.72;2.30;;;;;;;30.55;23.43;97880.63;10374800;28;20524;-56
2022/07/20 14:29:12;;;;;;;3.72;2.20;;;;;;;30.71;23.10;97883.75;10374213;28;20400;-56
2022/07/20 14:34:11;;;;;;;3.15;2.00;;;;;;;30.75;23.29;97885.22;10371772;28;20864;-55
2022/07/20 14:39:10;;;;;;;3.13;2.58;;;;;;;30.59;23.21;97881.25;10370883;28;20055;-55
2022/07/20 14:44:09;;;;;;;2.78;2.42;;;;;;;30.58;24.20;97875.00;10370663;28;20041;-56
2022/07/20 14:49:08;;;;;;;2.75;2.33;;;;;;;30.67;23.11;97874.28;10370834;28;20028;-57
2022/07/20 14:54:07;;;;;;;3.83;2.08;;;;;;;30.61;22.50;97869.44;10371051;28;20416;-56
2022/07/20 14:59:07;;;;;;;2.75;2.53;;;;;;;30.63;23.15;97867.47;10370712;28;20257;-56
2022/07/20 15:04:06;;;;;;;3.33;2.40;;;;;;;30.51;22.73;97868.47;10371440;28;20766;-56
2022/07/20 15:09:05;;;;;;;3.35;2.20;;;;;;;30.47;24.18;97867.03;10370830;28;20079;-56
2022/07/20 15:14:05;;;;;;;3.92;2.53;;;;;;;30.42;23.55;97869.19;10371109;28;20073;-56
2022/07/20 15:19:04;;;;;;;4.60;2.47;;;;;;;30.45;24.08;97863.63;10371683;28;20065;-56
2022/07/20 15:24:03;;;;;;;2.72;2.13;;;;;;;30.63;23.20;97867.47;10378253;28;20025;-56
2022/07/20 15:29:02;;;;;;;2.35;2.15;;;;;;;30.75;23.14;97857.59;10378215;28;20479;-56
2022/07/20 15:34:01;;;;;;;2.78;2.40;;;;;;;30.86;23.07;97857.53;10377658;28;20634;-56
2022/07/20 15:39:00;;;;;;;2.75;2.28;;;;;;;30.81;23.98;97848.19;10377336;28;20081;-56
2022/07/20 15:43:59;;;;;;;5.95;2.50;;;;;;;30.59;24.69;97852.63;10377476;28;20074;-56
2022/07/20 15:48:58;;;;;;;2.80;2.45;;;;;;;30.34;24.55;97845.69;10377260;28;20063;-56
2022/07/20 15:53:57;;;;;;;4.90;2.60;;;;;;;30.02;24.99;97849.09;10377004;28;20017;-57
2022/07/20 15:58:56;;;;;;;6.30;2.55;;;;;;;29.98;25.17;97844.16;10375846;28;20583;-56
2022/07/20 16:03:55;;;;;;;4.68;2.58;;;;;;;29.91;24.72;97844.63;10376624;28;20607;-56
2022/07/20 16:08:54;;;;;;;5.07;2.40;;;;;;;29.76;24.38;97845.78;10376948;28;20104;-56
2022/07/20 16:13:53;;;;;;;4.63;2.35;;;;;;;29.78;24.62;97843.00;10376208;28;20017;-56
2022/07/20 16:18:52;;;;;;;5.07;2.40;;;;;;;29.98;25.21;97839.63;10375883;28;20025;-56
2022/07/20 16:23:51;;;;;;;11.25;2.63;;;;;;;29.96;24.91;97836.22;10375707;28;20060;-56
2022/07/20 16:28:50;;;;;;;4.10;2.60;;;;;;;29.84;24.75;97835.38;10374402;28;20040;-56
2022/07/20 16:33:50;;;;;;;5.47;2.63;;;;;;;29.89;25.03;97835.84;10378590;28;20400;-56
2022/07/20 16:38:49;;;;;;;3.13;2.40;;;;;;;29.76;24.71;97840.41;10378132;28;20140;-56
2022/07/20 16:43:48;;;;;;;3.67;2.50;;;;;;;29.83;25.43;97832.78;10377870;28;20167;-57
2022/07/20 16:48:47;;;;;;;3.40;2.78;;;;;;;29.75;25.74;97838.72;10378180;28;20385;-56
2022/07/20 16:53:46;;;;;;;8.93;3.53;;;;;;;29.48;25.63;97831.00;10378037;28;20066;-56
2022/07/20 16:58:45;;;;;;;6.97;2.80;;;;;;;29.41;25.77;97827.97;10377806;28;20094;-56
2022/07/20 17:03:44;;;;;;;3.45;2.45;;;;;;;29.17;25.50;97819.97;10377758;28;20044;-56
2022/07/20 17:08:43;;;;;;;5.97;3.20;;;;;;;29.03;25.81;97830.84;10377977;28;20480;-56
2022/07/20 17:13:42;;;;;;;4.20;2.83;;;;;;;29.02;25.61;97831.84;10377294;28;20171;-56
2022/07/20 17:18:41;;;;;;;7.28;3.60;;;;;;;28.97;27.39;97837.53;10375808;28;20037;-56
2022/07/20 17:23:40;;;;;;;6.90;3.35;;;;;;;28.78;29.75;97839.84;10376641;28;20076;-56
2022/07/20 17:28:39;;;;;;;5.72;3.40;;;;;;;28.49;31.00;97837.47;10376508;28;20072;-56
2022/07/20 17:33:38;;;;;;;7.38;3.60;;;;;;;28.02;32.41;97844.38;10373132;28;20027;-56
2022/07/20 17:38:37;;;;;;;7.00;2.88;;;;;;;27.51;33.53;97844.38;10372878;28;20690;-56
2022/07/20 17:43:36;;;;;;;3.05;2.65;;;;;;;27.01;34.21;97845.97;10372322;28;20451;-56
2022/07/20 17:48:35;;;;;;;7.57;3.22;;;;;;;26.56;34.88;97836.38;10373156;28;20043;-56
2022/07/20 17:53:34;;;;;;;6.05;3.38;;;;;;;26.21;35.81;97840.47;10372319;28;20584;-56
2022/07/20 17:58:33;;;;;;;9.48;3.50;;;;;;;25.92;36.25;97841.28;10370483;28;20550;-56
2022/07/20 18:03:32;;;;;;;4.75;2.78;;;;;;;25.54;35.96;97833.00;10370503;28;20508;-56
2022/07/20 18:08:31;;;;;;;4.22;2.88;;;;;;;25.23;36.80;97850.75;10372113;28;20077;-56
2022/07/20 18:13:30;;;;;;;5.28;3.15;;;;;;;24.96;37.07;97855.00;10371392;28;20060;-56
2022/07/20 18:18:29;;;;;;;4.15;2.97;;;;;;;24.68;37.71;97860.09;10372267;28;20440;-56
2022/07/20 18:23:28;;;;;;;5.55;2.95;;;;;;;24.37;38.64;97866.22;10371492;28;20480;-56
2022/07/20 18:28:27;;;;;;;8.10;3.63;;;;;;;24.08;39.03;97864.31;10371362;28;20033;-56
2022/07/20 18:33:26;;;;;;;5.43;3.08;;;;;;;23.81;39.45;97870.97;10371339;28;20114;-56
2022/07/20 18:38:25;;;;;;;5.30;2.83;;;;;;;23.57;39.52;97870.47;10371406;28;20068;-56
2022/07/20 18:43:27;;;;;;;5.88;3.15;;;;;;;23.33;39.47;97877.00;10371538;28;20463;-56
2022/07/20 18:48:29;;;;;;;6.00;3.20;;;;;;;23.17;39.90;97877.78;10371136;28;20448;-56
2022/07/20 18:53:28;;;;;;;5.45;3.45;;;;;;;23.06;40.20;97888.03;10373290;28;20049;-57
2022/07/20 18:58:27;;;;;;;6.13;3.60;;;;;;;22.90;40.71;97889.72;10379347;28;20083;-56
2022/07/20 19:03:26;;;;;;;6.65;3.95;;;;;;;22.73;40.65;97896.66;10378972;28;20112;-55
2022/07/20 19:08:26;;;;;;;6.00;3.92;;;;;;;22.57;41.16;97901.81;10379547;28;20072;-55
2022/07/20 19:13:25;;;;;;;4.10;3.15;;;;;;;22.43;41.41;97895.47;10379230;28;20063;-56
2022/07/20 19:18:25;;;;;;;4.78;3.17;;;;;;;22.29;41.79;97899.59;10378259;28;20079;-55
2022/07/20 19:23:24;;;;;;;4.28;3.40;;;;;;;22.08;41.94;97888.22;10378108;28;20069;-55
2022/07/20 19:28:23;;;;;;;6.90;3.10;;;;;;;22.05;42.11;97906.88;10377892;28;20137;-56
2022/07/20 19:33:22;;;;;;;5.53;3.30;;;;;;;21.89;42.64;97906.66;10381486;28;20064;-55
2022/07/20 19:38:21;;;;;;;5.43;3.20;;;;;;;21.74;43.06;97895.00;10381285;28;20059;-56
2022/07/20 19:43:20;;;;;;;7.95;4.93;;;;;;;21.59;43.73;97898.28;10381524;28;20481;-56
2022/07/20 19:48:19;;;;;;;11.30;5.95;;;;;;;21.47;44.51;97890.91;10380578;28;20459;-56
2022/07/20 19:53:18;;;;;;;9.10;5.68;;;;;;;21.31;45.90;97895.97;10380602;28;20067;-56
2022/07/20 19:58:17;;;;;;;11.77;5.13;;;;;;;21.19;46.26;97901.72;10380442;28;20096;-55
2022/07/20 20:03:16;;;;;;;8.57;4.47;;;;;;;21.06;46.61;97904.88;10380530;28;20079;-55
2022/07/20 20:08:16;;;;;;;7.03;4.07;;;;;;;20.94;47.24;97900.13;10379241;28;20512;-55
2022/07/20 20:13:15;;;;;;;8.40;4.90;;;;;;;20.79;47.62;97903.34;10379804;28;20487;-55
2022/07/20 20:18:14;;;;;;;8.45;4.95;;;;;;;20.66;48.09;97911.75;10380104;28;20069;-55
2022/07/20 20:23:13;;;;;;;7.55;5.20;;;;;;;20.54;48.53;97899.06;10379419;28;20075;-55
2022/07/20 20:28:12;;;;;;;10.30;5.30;;;;;;;20.48;49.04;97899.28;10379122;28;20123;-55
2022/07/20 20:33:11;;;;;;;11.27;5.97;;;;;;;20.35;49.86;97898.00;10375682;28;20068;-55
2022/07/20 20:38:10;;;;;;;9.52;5.45;;;;;;;20.26;50.35;97894.81;10375408;28;20052;-55
2022/07/20 20:43:09;;;;;;;8.63;4.95;;;;;;;20.08;51.59;97895.50;10375170;28;20036;-56
2022/07/20 20:48:08;;;;;;;7.93;5.25;;;;;;;19.91;52.23;97911.03;10374932;28;20500;-56
2022/07/20 20:53:07;;;;;;;11.43;6.00;;;;;;;19.75;52.62;97903.72;10375414;28;20091;-55
2022/07/20 20:58:06;;;;;;;13.85;6.47;;;;;;;19.63;53.26;97898.88;10374562;28;20439;-55
2022/07/20 21:03:05;;;;;;;11.93;5.47;;;;;;;19.40;53.38;97903.13;10374543;28;20029;-55
2022/07/20 21:08:04;;;;;;;8.70;5.55;;;;;;;19.31;53.21;97903.44;10374329;28;20104;-55
2022/07/20 21:13:03;;;;;;;8.43;5.75;;;;;;;19.26;53.78;97902.75;10373872;28;20528;-55
2022/07/20 21:18:03;;;;;;;10.13;5.57;;;;;;;19.18;53.88;97892.50;10372937;28;20583;-55
2022/07/20 21:23:02;;;;;;;9.43;6.22;;;;;;;19.11;54.85;97885.72;10373422;28;20060;-56
2022/07/20 21:28:01;;;;;;;8.48;5.32;;;;;;;19.06;55.23;97892.00;10374009;28;20028;-56
2022/07/20 21:33:00;;;;;;;9.65;5.93;;;;;;;18.97;55.59;97882.66;10373572;28;20523;-56
2022/07/20 21:37:59;;;;;;;11.82;6.53;;;;;;;18.79;58.21;97881.50;10373302;28;20091;-56
2022/07/20 21:42:58;;;;;;;11.00;5.75;;;;;;;18.72;58.31;97883.47;10372866;28;20029;-56
2022/07/20 21:47:58;;;;;;;9.23;5.97;;;;;;;18.38;59.42;97880.97;10372847;28;20076;-57
2022/07/20 21:53:01;;;;;;;10.27;6.40;;;;;;;18.31;60.23;97889.94;10372520;28;20068;-55
2022/07/20 21:58:00;;;;;;;11.30;6.57;;;;;;;18.14;60.82;97880.81;10372818;28;20079;-55
2022/07/20 22:02:59;;;;;;;12.15;7.03;;;;;;;17.98;61.56;97880.38;10372517;28;20512;-55
2022/07/20 22:07:59;;;;;;;9.85;7.88;;;;;;;17.73;62.76;97874.06;10372062;28;20496;-55
2022/07/20 22:12:58;;;;;;;9.80;7.47;;;;;;;17.63;62.62;97883.09;10371898;28;20060;-55
2022/07/20 22:17:57;;;;;;;9.60;7.80;;;;;;;17.56;62.81;97870.16;10372415;28;20044;-55
2022/07/20 22:22:56;;;;;;;10.60;7.30;;;;;;;17.50;62.90;97872.94;10371706;28;20028;-55
2022/07/20 22:27:55;;;;;;;7.75;6.57;;;;;;;17.44;63.38;97856.50;10371152;28;20072;-55
2022/07/20 22:32:54;;;;;;;9.88;5.68;;;;;;;17.31;63.92;97845.50;10375053;28;20067;-55
2022/07/20 22:37:54;;;;;;;7.15;5.05;;;;;;;17.39;63.80;97858.41;10374527;28;20049;-55
2022/07/20 22:42:53;;;;;;;7.50;4.75;;;;;;;17.30;63.76;97852.47;10374741;28;20496;-56
2022/07/20 22:47:52;;;;;;;7.47;5.07;;;;;;;17.33;63.96;97864.66;10374698;28;20420;-55
2022/07/20 22:52:51;;;;;;;8.75;4.47;;;;;;;17.32;63.95;97858.56;10374505;28;20456;-55
2022/07/20 22:57:50;;;;;;;;;;;;;;;17.29;63.71;97856.03;10375000;28;20436;-55
2022/07/20 23:02:51;;;;;;;10.43;4.50;;;;;;;17.26;64.06;97853.50;10374252;28;19913;-55
2022/07/20 23:07:53;;;;;;;7.72;4.80;;;;;;;17.22;64.55;97845.75;10373970;28;20480;-56
2022/07/20 23:12:54;;;;;;;6.43;4.75;;;;;;;17.20;64.50;97848.41;10374216;28;20390;-55